Greenwood, Virginia
Current Conditions -  °F | °C
As of 10:55 PM on Sunday 21 Dec 2014 (Local Time) from KW13 Reporting Station
Overcast Overcast  
Wind Chill: 29°   Ceiling: 3500
Heat Index: 34°   Visibility: 10mi
Dew Point: 26°   Wind: 6mph
Humidity: 73%   Direction: 110°ESE
Pressure: 30.25"   Gusts: NA
Location:  38.05°N, 78.77°W
Report Text: KW13 220355Z AUTO 11005KT 10SM OVC035 01/M03 A3025 RMK AO1 T00121032
Loading
Personal Weather Stations






























Interactive Weather Map New forecast layout! Learn more

10-Day Weather Forecast

Advertisements
Track Severe Weather on mobile